ADDS TAF Data INFO
IDs: Format: Raw Decoded Include METARs

Data at: 2023 UTC 22 Apr 2018

KROA 221954Z 13008KT 10SM FEW050 BKN170 OVC250 20/07 A3027 RMK AO2 SLP246 T02000067

KROA 221927Z 2219/2318 13010KT P6SM BKN200
  FM231400 09007KT P6SM BKN025
  FM231500 10010KT P6SM OVC015